Gainesville Regional Airport
KGNV : now visible

Airfield :











YOU CAN JOIN US ON...

 
LOGIN :

Register | Disclaimer

   EN    FR    IT 

 









Legend :    VFR   Marginal VFR   IFR   Intensive IFR   Very Intensive IFR
Visi :
Ceiling :
>= 8 km
>= 3000ft
5 to 8 km
1000 to 3000 ft
1500m to 5 km
500 to 1000 ft
800 to 1500m
200 to 500 ft
< 800m
< 200 ft
Symbols :   Thunderstorms  Fog  Heavy snow  Heavy precipitations  Wind > 20 kt






- Airport Elevation : 152 ft
- IATA code : GNV


KGNV - Gainesville Regional

CURRENT METAR :
  • 141353Z VRB03KT 10SM CLR 21/12 A3026 RMK AO2 SLP245 T02110122

EXPIRED METARs :
  • 141253Z 33005KT 10SM CLR 17/12 A3025 RMK AO2 SLP241 T01720122
  • 141153Z 00000KT 10SM CLR 13/11 A3024 RMK AO2 SLP237 T01280111 10128 20094 53011
  • 141053Z 32004KT 10SM CLR 11/09 A3022 RMK AO2 SLP231 T01060094
  • 140953Z AUTO 31005KT 10SM CLR 13/11 A3020 RMK AO2 SLP226 T01280106

TAF KGNV
Valid from the 14 at 12:00 until the 15 at 12:00 UTC


141120Z 1412/1512 VRB03KT P6SM SKC
FM141400 VRB05KT P6SM FEW250
FM150200 00000KT P6SM SCT200
KZJX FIR / North America



MET'MAP, your aeronautical weather chart ! - Copyright ORBIFLY December 2007 - Disclaimer

ORBIFLY MET'MAP TEAM :

Programming & Development : Alexandra Zaïnal
Original concept : Baudouin d'Aumeries
Technical & hardware support : Manuel Goepfert
Assistance : Marc-Olivier Méhu




SOURCES & CREDITS :

   NOAA       Earth
Advisory